sensor_id;sensor_type;location;lat;lon;timestamp;pressure;altitude;pressure_sealevel;temperature;humidity
48089;BME280;33867;50.314;7.802;2023-03-17T00:07:24;100071.91;;;3.06;nan
48089;BME280;33867;50.314;7.802;2023-03-17T00:10:46;100050.44;;;3.09;nan
48089;BME280;33867;50.314;7.802;2023-03-17T00:14:05;100057.03;;;3.16;nan
48089;BME280;33867;50.314;7.802;2023-03-17T00:17:24;100058.66;;;3.32;nan
48089;BME280;33867;50.314;7.802;2023-03-17T00:20:44;100058.84;;;3.29;nan
48089;BME280;33867;50.314;7.802;2023-03-17T00:23:50;100061.09;;;3.35;nan
48089;BME280;33867;50.314;7.802;2023-03-17T00:27:12;100059.06;;;3.13;nan
48089;BME280;33867;50.314;7.802;2023-03-17T00:30:37;100055.75;;;3.09;nan
48089;BME280;33867;50.314;7.802;2023-03-17T00:37:29;100052.31;;;3.07;nan
48089;BME280;33867;50.314;7.802;2023-03-17T00:40:52;100060.72;;;3.01;nan
48089;BME280;33867;50.314;7.802;2023-03-17T00:44:17;100047.44;;;3.14;nan
48089;BME280;33867;50.314;7.802;2023-03-17T00:47:36;100041.91;;;3.17;nan
48089;BME280;33867;50.314;7.802;2023-03-17T00:51:20;100036.78;;;3.01;nan
48089;BME280;33867;50.314;7.802;2023-03-17T00:54:57;100030.75;;;3.25;nan
48089;BME280;33867;50.314;7.802;2023-03-17T00:58:27;100043.59;;;3.05;nan
48089;BME280;33867;50.314;7.802;2023-03-17T01:02:01;100054.88;;;2.96;nan
48089;BME280;33867;50.314;7.802;2023-03-17T01:05:33;100026.66;;;2.93;nan
48089;BME280;33867;50.314;7.802;2023-03-17T01:08:54;100040.13;;;2.78;nan
48089;BME280;33867;50.314;7.802;2023-03-17T01:17:26;100026.16;;;2.61;nan
48089;BME280;33867;50.314;7.802;2023-03-17T01:20:45;100028.47;;;2.53;nan
48089;BME280;33867;50.314;7.802;2023-03-17T01:24:11;100031.13;;;2.53;nan
48089;BME280;33867;50.314;7.802;2023-03-17T01:27:35;100029.22;;;2.55;nan
48089;BME280;33867;50.314;7.802;2023-03-17T01:30:56;100037.56;;;2.63;nan
48089;BME280;33867;50.314;7.802;2023-03-17T01:34:15;100028.63;;;2.64;nan
48089;BME280;33867;50.314;7.802;2023-03-17T01:37:35;100039.25;;;2.64;nan
48089;BME280;33867;50.314;7.802;2023-03-17T01:40:54;100040.31;;;2.62;nan
48089;BME280;33867;50.314;7.802;2023-03-17T01:44:17;100034.31;;;2.58;nan
48089;BME280;33867;50.314;7.802;2023-03-17T01:47:36;100035.50;;;2.54;nan
48089;BME280;33867;50.314;7.802;2023-03-17T01:54:36;100022.19;;;2.54;nan
48089;BME280;33867;50.314;7.802;2023-03-17T01:57:57;100009.44;;;2.59;nan
48089;BME280;33867;50.314;7.802;2023-03-17T02:01:52;100018.00;;;2.64;nan
48089;BME280;33867;50.314;7.802;2023-03-17T02:05:13;100003.84;;;2.64;nan
48089;BME280;33867;50.314;7.802;2023-03-17T02:08:35;99990.84;;;2.59;nan
48089;BME280;33867;50.314;7.802;2023-03-17T02:11:59;99975.63;;;2.49;nan
48089;BME280;33867;50.314;7.802;2023-03-17T02:15:22;99961.03;;;2.42;nan
48089;BME280;33867;50.314;7.802;2023-03-17T02:18:44;99975.78;;;2.33;nan
48089;BME280;33867;50.314;7.802;2023-03-17T02:22:08;99980.88;;;2.36;nan
48089;BME280;33867;50.314;7.802;2023-03-17T02:25:33;99973.94;;;2.21;nan
48089;BME280;33867;50.314;7.802;2023-03-17T02:28:55;99959.16;;;2.17;nan
48089;BME280;33867;50.314;7.802;2023-03-17T02:36:32;99975.28;;;2.14;nan
48089;BME280;33867;50.314;7.802;2023-03-17T02:44:23;99971.00;;;2.11;nan
48089;BME280;33867;50.314;7.802;2023-03-17T02:47:46;99965.59;;;2.13;nan
48089;BME280;33867;50.314;7.802;2023-03-17T02:51:08;99956.88;;;2.11;nan
48089;BME280;33867;50.314;7.802;2023-03-17T02:54:36;99952.13;;;2.16;nan
48089;BME280;33867;50.314;7.802;2023-03-17T02:57:55;99942.75;;;2.10;nan
48089;BME280;33867;50.314;7.802;2023-03-17T03:04:52;99953.94;;;2.15;nan
48089;BME280;33867;50.314;7.802;2023-03-17T03:08:11;99949.22;;;2.33;nan
48089;BME280;33867;50.314;7.802;2023-03-17T03:11:33;99941.84;;;2.24;nan
48089;BME280;33867;50.314;7.802;2023-03-17T03:14:52;99953.84;;;2.17;nan
48089;BME280;33867;50.314;7.802;2023-03-17T03:18:14;99950.63;;;2.12;nan
48089;BME280;33867;50.314;7.802;2023-03-17T03:49:41;99942.88;;;1.67;nan
48089;BME280;33867;50.314;7.802;2023-03-17T03:53:26;99952.06;;;1.62;nan
48089;BME280;33867;50.314;7.802;2023-03-17T03:56:48;99953.19;;;1.72;nan
48089;BME280;33867;50.314;7.802;2023-03-17T04:00:12;99952.66;;;1.67;nan
48089;BME280;33867;50.314;7.802;2023-03-17T04:03:51;99948.75;;;1.72;nan
48089;BME280;33867;50.314;7.802;2023-03-17T04:07:10;99964.47;;;1.75;nan
48089;BME280;33867;50.314;7.802;2023-03-17T04:10:29;99964.41;;;1.49;nan
48089;BME280;33867;50.314;7.802;2023-03-17T04:39:44;99965.16;;;1.36;nan
48089;BME280;33867;50.314;7.802;2023-03-17T05:04:38;99974.13;;;0.91;nan
48089;BME280;33867;50.314;7.802;2023-03-17T05:08:05;99977.06;;;1.01;nan
48089;BME280;33867;50.314;7.802;2023-03-17T05:19:05;100001.44;;;0.77;nan
48089;BME280;33867;50.314;7.802;2023-03-17T05:48:20;99983.78;;;0.48;nan
48089;BME280;33867;50.314;7.802;2023-03-17T06:34:14;99972.59;;;1.87;nan
48089;BME280;33867;50.314;7.802;2023-03-17T06:37:36;99969.50;;;2.07;nan
48089;BME280;33867;50.314;7.802;2023-03-17T06:44:58;99969.44;;;2.48;nan
48089;BME280;33867;50.314;7.802;2023-03-17T07:00:50;99948.16;;;2.88;nan
48089;BME280;33867;50.314;7.802;2023-03-17T07:04:18;99948.91;;;3.03;nan
48089;BME280;33867;50.314;7.802;2023-03-17T07:07:39;99942.22;;;3.10;nan
48089;BME280;33867;50.314;7.802;2023-03-17T07:10:57;99945.50;;;3.26;nan
48089;BME280;33867;50.314;7.802;2023-03-17T07:14:24;99949.22;;;3.49;nan
48089;BME280;33867;50.314;7.802;2023-03-17T07:29:39;99938.97;;;4.05;nan
48089;BME280;33867;50.314;7.802;2023-03-17T07:48:16;99946.06;;;4.76;nan
48089;BME280;33867;50.314;7.802;2023-03-17T07:51:53;99936.59;;;4.83;nan
48089;BME280;33867;50.314;7.802;2023-03-17T07:55:15;99923.94;;;5.09;nan
48089;BME280;33867;50.314;7.802;2023-03-17T07:58:37;99917.75;;;5.42;nan
48089;BME280;33867;50.314;7.802;2023-03-17T08:01:56;99916.44;;;5.59;nan
48089;BME280;33867;50.314;7.802;2023-03-17T08:05:18;99916.50;;;5.80;nan
48089;BME280;33867;50.314;7.802;2023-03-17T08:08:37;99915.75;;;6.11;nan
48089;BME280;33867;50.314;7.802;2023-03-17T08:38:41;99907.06;;;8.34;nan
48089;BME280;33867;50.314;7.802;2023-03-17T09:04:32;99854.25;;;10.56;nan
48089;BME280;33867;50.314;7.802;2023-03-17T09:08:21;99857.81;;;10.82;nan
48089;BME280;33867;50.314;7.802;2023-03-17T09:53:33;99855.59;;;13.59;nan
48089;BME280;33867;50.314;7.802;2023-03-17T10:17:24;99832.25;;;13.66;nan
48089;BME280;33867;50.314;7.802;2023-03-17T10:42:27;99859.44;;;14.04;nan
48089;BME280;33867;50.314;7.802;2023-03-17T10:58:41;99817.38;;;15.73;nan
48089;BME280;33867;50.314;7.802;2023-03-17T11:02:42;99821.28;;;16.22;nan
48089;BME280;33867;50.314;7.802;2023-03-17T11:06:19;99811.22;;;15.79;nan
48089;BME280;33867;50.314;7.802;2023-03-17T11:14:13;99799.53;;;15.35;nan
48089;BME280;33867;50.314;7.802;2023-03-17T11:17:49;99796.06;;;15.26;nan
48089;BME280;33867;50.314;7.802;2023-03-17T11:28:42;99792.16;;;14.84;nan
48089;BME280;33867;50.314;7.802;2023-03-17T11:39:56;99771.44;;;14.54;nan
48089;BME280;33867;50.314;7.802;2023-03-17T11:43:59;99768.97;;;14.82;nan
48089;BME280;33867;50.314;7.802;2023-03-17T11:51:01;99767.75;;;14.84;nan
48089;BME280;33867;50.314;7.802;2023-03-17T11:54:25;99759.88;;;14.89;nan
48089;BME280;33867;50.314;7.802;2023-03-17T11:57:55;99761.84;;;15.40;nan
48089;BME280;33867;50.314;7.802;2023-03-17T12:05:36;99749.13;;;15.91;nan
48089;BME280;33867;50.314;7.802;2023-03-17T12:10:18;99764.22;;;15.79;nan
48089;BME280;33867;50.314;7.802;2023-03-17T12:18:37;99764.94;;;15.22;nan
48089;BME280;33867;50.314;7.802;2023-03-17T12:22:22;99747.28;;;15.11;nan
48089;BME280;33867;50.314;7.802;2023-03-17T12:26:11;99741.56;;;15.21;nan
48089;BME280;33867;50.314;7.802;2023-03-17T12:29:41;99754.50;;;15.70;nan
48089;BME280;33867;50.314;7.802;2023-03-17T12:37:38;99750.03;;;15.47;nan
48089;BME280;33867;50.314;7.802;2023-03-17T12:41:41;99753.94;;;15.74;nan
48089;BME280;33867;50.314;7.802;2023-03-17T12:57:37;99748.34;;;16.96;nan
48089;BME280;33867;50.314;7.802;2023-03-17T13:14:26;99724.78;;;15.83;nan
48089;BME280;33867;50.314;7.802;2023-03-17T13:36:27;99707.19;;;15.07;nan
48089;BME280;33867;50.314;7.802;2023-03-17T13:47:25;99693.06;;;14.97;nan
48089;BME280;33867;50.314;7.802;2023-03-17T13:50:46;99703.72;;;14.83;nan
48089;BME280;33867;50.314;7.802;2023-03-17T14:05:26;99688.09;;;14.56;nan
48089;BME280;33867;50.314;7.802;2023-03-17T14:08:55;99672.53;;;14.58;nan
48089;BME280;33867;50.314;7.802;2023-03-17T14:12:23;99674.28;;;14.51;nan
48089;BME280;33867;50.314;7.802;2023-03-17T14:16:01;99682.13;;;14.75;nan
48089;BME280;33867;50.314;7.802;2023-03-17T14:19:27;99679.16;;;14.70;nan
48089;BME280;33867;50.314;7.802;2023-03-17T14:22:58;99694.72;;;14.53;nan
48089;BME280;33867;50.314;7.802;2023-03-17T14:26:17;99691.59;;;14.42;nan
48089;BME280;33867;50.314;7.802;2023-03-17T14:29:37;99689.22;;;14.76;nan
48089;BME280;33867;50.314;7.802;2023-03-17T14:36:22;99688.25;;;14.40;nan
48089;BME280;33867;50.314;7.802;2023-03-17T14:39:47;99680.19;;;14.31;nan
48089;BME280;33867;50.314;7.802;2023-03-17T14:43:09;99668.06;;;14.27;nan
48089;BME280;33867;50.314;7.802;2023-03-17T14:46:38;99679.50;;;14.15;nan
48089;BME280;33867;50.314;7.802;2023-03-17T14:50:14;99679.47;;;14.00;nan
48089;BME280;33867;50.314;7.802;2023-03-17T14:53:49;99679.97;;;14.18;nan
48089;BME280;33867;50.314;7.802;2023-03-17T14:57:48;99681.94;;;14.10;nan
48089;BME280;33867;50.314;7.802;2023-03-17T15:01:14;99674.78;;;14.31;nan
48089;BME280;33867;50.314;7.802;2023-03-17T15:04:51;99680.28;;;14.61;nan
48089;BME280;33867;50.314;7.802;2023-03-17T15:08:58;99682.41;;;14.95;nan
48089;BME280;33867;50.314;7.802;2023-03-17T15:12:23;99681.97;;;14.39;nan
48089;BME280;33867;50.314;7.802;2023-03-17T15:19:59;99678.41;;;14.47;nan
48089;BME280;33867;50.314;7.802;2023-03-17T15:23:22;99678.72;;;14.44;nan
48089;BME280;33867;50.314;7.802;2023-03-17T15:26:45;99676.81;;;14.52;nan
48089;BME280;33867;50.314;7.802;2023-03-17T15:30:05;99681.69;;;14.57;nan
48089;BME280;33867;50.314;7.802;2023-03-17T15:36:52;99689.13;;;14.99;nan
48089;BME280;33867;50.314;7.802;2023-03-17T15:40:17;99692.31;;;14.73;nan
48089;BME280;33867;50.314;7.802;2023-03-17T15:43:55;99683.66;;;14.93;nan
48089;BME280;33867;50.314;7.802;2023-03-17T15:47:54;99684.56;;;15.00;nan
48089;BME280;33867;50.314;7.802;2023-03-17T15:51:59;99691.03;;;14.69;nan
48089;BME280;33867;50.314;7.802;2023-03-17T15:55:57;99695.69;;;14.60;nan
48089;BME280;33867;50.314;7.802;2023-03-17T15:59:40;99697.09;;;14.56;nan
48089;BME280;33867;50.314;7.802;2023-03-17T16:03:49;99693.28;;;14.43;nan
48089;BME280;33867;50.314;7.802;2023-03-17T16:07:24;99691.84;;;14.55;nan
48089;BME280;33867;50.314;7.802;2023-03-17T16:10:51;99678.97;;;13.96;nan
48089;BME280;33867;50.314;7.802;2023-03-17T16:14:10;99681.34;;;13.77;nan
48089;BME280;33867;50.314;7.802;2023-03-17T16:17:29;99672.56;;;13.97;nan
48089;BME280;33867;50.314;7.802;2023-03-17T16:20:57;99662.34;;;13.39;nan
48089;BME280;33867;50.314;7.802;2023-03-17T16:24:24;99655.72;;;13.19;nan
48089;BME280;33867;50.314;7.802;2023-03-17T16:27:43;99647.94;;;13.15;nan
48089;BME280;33867;50.314;7.802;2023-03-17T16:31:15;99661.88;;;13.58;nan
48089;BME280;33867;50.314;7.802;2023-03-17T16:34:43;99655.97;;;13.55;nan
48089;BME280;33867;50.314;7.802;2023-03-17T16:39:13;99633.97;;;13.04;nan
48089;BME280;33867;50.314;7.802;2023-03-17T16:42:39;99640.59;;;12.93;nan
48089;BME280;33867;50.314;7.802;2023-03-17T16:46:05;99644.53;;;13.13;nan
48089;BME280;33867;50.314;7.802;2023-03-17T16:49:41;99640.81;;;13.23;nan
48089;BME280;33867;50.314;7.802;2023-03-17T16:53:09;99659.75;;;13.45;nan
48089;BME280;33867;50.314;7.802;2023-03-17T16:56:54;99665.78;;;13.25;nan
48089;BME280;33867;50.314;7.802;2023-03-17T17:00:22;99672.59;;;12.65;nan
48089;BME280;33867;50.314;7.802;2023-03-17T17:03:52;99683.16;;;12.27;nan
48089;BME280;33867;50.314;7.802;2023-03-17T17:07:17;99674.94;;;11.88;nan
48089;BME280;33867;50.314;7.802;2023-03-17T17:10:37;99678.28;;;11.82;nan
48089;BME280;33867;50.314;7.802;2023-03-17T17:14:40;99676.63;;;11.97;nan
48089;BME280;33867;50.314;7.802;2023-03-17T17:18:51;99682.50;;;11.77;nan
48089;BME280;33867;50.314;7.802;2023-03-17T17:22:10;99696.34;;;11.90;nan
48089;BME280;33867;50.314;7.802;2023-03-17T17:25:32;99693.78;;;11.64;nan
48089;BME280;33867;50.314;7.802;2023-03-17T17:29:21;99687.50;;;11.55;nan
48089;BME280;33867;50.314;7.802;2023-03-17T17:32:40;99689.59;;;11.94;nan
48089;BME280;33867;50.314;7.802;2023-03-17T17:35:59;99692.44;;;11.76;nan
48089;BME280;33867;50.314;7.802;2023-03-17T17:39:18;99690.38;;;11.70;nan
48089;BME280;33867;50.314;7.802;2023-03-17T17:42:37;99687.63;;;11.29;nan
48089;BME280;33867;50.314;7.802;2023-03-17T17:45:56;99688.00;;;11.42;nan
48089;BME280;33867;50.314;7.802;2023-03-17T17:49:28;99684.63;;;11.40;nan
48089;BME280;33867;50.314;7.802;2023-03-17T17:53:08;99681.44;;;11.45;nan
48089;BME280;33867;50.314;7.802;2023-03-17T17:56:31;99689.38;;;11.63;nan
48089;BME280;33867;50.314;7.802;2023-03-17T17:59:56;99686.25;;;11.17;nan
48089;BME280;33867;50.314;7.802;2023-03-17T18:03:16;99689.66;;;11.27;nan
48089;BME280;33867;50.314;7.802;2023-03-17T18:06:52;99689.34;;;11.47;nan
48089;BME280;33867;50.314;7.802;2023-03-17T18:10:17;99689.69;;;11.43;nan
48089;BME280;33867;50.314;7.802;2023-03-17T18:13:36;99696.31;;;11.74;nan
48089;BME280;33867;50.314;7.802;2023-03-17T18:17:22;99703.25;;;11.18;nan
48089;BME280;33867;50.314;7.802;2023-03-17T18:20:56;99711.47;;;11.08;nan
48089;BME280;33867;50.314;7.802;2023-03-17T18:24:27;99724.56;;;10.95;nan
48089;BME280;33867;50.314;7.802;2023-03-17T18:27:46;99708.22;;;10.62;nan
48089;BME280;33867;50.314;7.802;2023-03-17T18:31:11;99718.03;;;10.71;nan
48089;BME280;33867;50.314;7.802;2023-03-17T18:34:37;99717.91;;;11.15;nan
48089;BME280;33867;50.314;7.802;2023-03-17T18:38:01;99718.84;;;10.98;nan
48089;BME280;33867;50.314;7.802;2023-03-17T18:41:20;99720.91;;;11.04;nan
48089;BME280;33867;50.314;7.802;2023-03-17T18:44:39;99724.88;;;10.92;nan
48089;BME280;33867;50.314;7.802;2023-03-17T18:47:59;99745.09;;;10.96;nan
48089;BME280;33867;50.314;7.802;2023-03-17T18:51:18;99740.19;;;10.57;nan
48089;BME280;33867;50.314;7.802;2023-03-17T18:54:37;99738.97;;;10.77;nan
48089;BME280;33867;50.314;7.802;2023-03-17T18:57:56;99741.78;;;10.76;nan
48089;BME280;33867;50.314;7.802;2023-03-17T19:01:15;99748.78;;;10.95;nan
48089;BME280;33867;50.314;7.802;2023-03-17T19:04:35;99751.03;;;10.73;nan
48089;BME280;33867;50.314;7.802;2023-03-17T19:07:55;99749.72;;;10.77;nan
48089;BME280;33867;50.314;7.802;2023-03-17T19:11:16;99753.78;;;10.81;nan
48089;BME280;33867;50.314;7.802;2023-03-17T19:14:36;99755.97;;;10.86;nan
48089;BME280;33867;50.314;7.802;2023-03-17T19:17:56;99751.47;;;10.35;nan
48089;BME280;33867;50.314;7.802;2023-03-17T19:21:15;99747.44;;;10.65;nan
48089;BME280;33867;50.314;7.802;2023-03-17T19:24:35;99746.72;;;10.54;nan
48089;BME280;33867;50.314;7.802;2023-03-17T19:27:54;99756.66;;;10.54;nan
48089;BME280;33867;50.314;7.802;2023-03-17T19:31:14;99753.41;;;10.24;nan
48089;BME280;33867;50.314;7.802;2023-03-17T19:34:33;99758.28;;;10.29;nan
48089;BME280;33867;50.314;7.802;2023-03-17T19:37:52;99761.16;;;10.53;nan
48089;BME280;33867;50.314;7.802;2023-03-17T19:41:11;99753.22;;;10.26;nan
48089;BME280;33867;50.314;7.802;2023-03-17T19:44:31;99758.13;;;10.13;nan
48089;BME280;33867;50.314;7.802;2023-03-17T19:47:52;99758.09;;;10.22;nan
48089;BME280;33867;50.314;7.802;2023-03-17T19:51:11;99756.13;;;10.15;nan
48089;BME280;33867;50.314;7.802;2023-03-17T19:54:30;99758.53;;;10.36;nan
48089;BME280;33867;50.314;7.802;2023-03-17T19:57:50;99768.94;;;9.95;nan
48089;BME280;33867;50.314;7.802;2023-03-17T20:01:09;99762.53;;;9.96;nan
48089;BME280;33867;50.314;7.802;2023-03-17T20:04:28;99765.53;;;9.93;nan
48089;BME280;33867;50.314;7.802;2023-03-17T20:07:48;99772.84;;;10.18;nan
48089;BME280;33867;50.314;7.802;2023-03-17T20:11:07;99782.44;;;10.21;nan
48089;BME280;33867;50.314;7.802;2023-03-17T20:14:27;99781.59;;;10.20;nan
48089;BME280;33867;50.314;7.802;2023-03-17T20:17:46;99773.69;;;10.19;nan
48089;BME280;33867;50.314;7.802;2023-03-17T20:21:11;99775.03;;;10.05;nan
48089;BME280;33867;50.314;7.802;2023-03-17T20:24:31;99775.16;;;9.95;nan
48089;BME280;33867;50.314;7.802;2023-03-17T20:27:52;99787.13;;;10.01;nan
48089;BME280;33867;50.314;7.802;2023-03-17T20:31:11;99792.88;;;9.43;nan
48089;BME280;33867;50.314;7.802;2023-03-17T20:34:33;99795.53;;;9.25;nan
48089;BME280;33867;50.314;7.802;2023-03-17T20:37:56;99778.09;;;9.12;nan
48089;BME280;33867;50.314;7.802;2023-03-17T20:41:17;99780.66;;;9.31;nan
48089;BME280;33867;50.314;7.802;2023-03-17T20:44:36;99801.38;;;9.66;nan
48089;BME280;33867;50.314;7.802;2023-03-17T20:47:55;99807.84;;;9.73;nan
48089;BME280;33867;50.314;7.802;2023-03-17T20:51:15;99798.56;;;9.40;nan
48089;BME280;33867;50.314;7.802;2023-03-17T20:54:36;99797.69;;;9.49;nan
48089;BME280;33867;50.314;7.802;2023-03-17T20:57:56;99807.22;;;9.61;nan
48089;BME280;33867;50.314;7.802;2023-03-17T21:01:18;99807.28;;;9.52;nan
48089;BME280;33867;50.314;7.802;2023-03-17T21:04:47;99819.09;;;9.59;nan
48089;BME280;33867;50.314;7.802;2023-03-17T21:08:06;99809.22;;;9.59;nan
48089;BME280;33867;50.314;7.802;2023-03-17T21:11:26;99817.97;;;9.61;nan
48089;BME280;33867;50.314;7.802;2023-03-17T21:14:46;99804.06;;;9.66;nan
48089;BME280;33867;50.314;7.802;2023-03-17T21:18:09;99802.69;;;9.62;nan
48089;BME280;33867;50.314;7.802;2023-03-17T21:21:30;99799.84;;;9.63;nan
48089;BME280;33867;50.314;7.802;2023-03-17T21:24:49;99793.53;;;9.55;nan
48089;BME280;33867;50.314;7.802;2023-03-17T21:28:09;99797.69;;;9.49;nan
48089;BME280;33867;50.314;7.802;2023-03-17T21:31:29;99792.44;;;9.20;nan
48089;BME280;33867;50.314;7.802;2023-03-17T21:34:48;99801.66;;;9.18;nan
48089;BME280;33867;50.314;7.802;2023-03-17T21:38:08;99809.13;;;9.24;nan
48089;BME280;33867;50.314;7.802;2023-03-17T21:41:29;99809.22;;;9.32;nan
48089;BME280;33867;50.314;7.802;2023-03-17T21:44:50;99803.84;;;9.32;nan
48089;BME280;33867;50.314;7.802;2023-03-17T21:48:10;99812.00;;;9.40;nan
48089;BME280;33867;50.314;7.802;2023-03-17T21:51:29;99809.97;;;9.24;nan
48089;BME280;33867;50.314;7.802;2023-03-17T21:54:48;99812.91;;;9.31;nan
48089;BME280;33867;50.314;7.802;2023-03-17T21:58:08;99805.00;;;9.29;nan
48089;BME280;33867;50.314;7.802;2023-03-17T22:01:27;99811.47;;;9.36;nan
48089;BME280;33867;50.314;7.802;2023-03-17T22:04:46;99824.06;;;9.36;nan
48089;BME280;33867;50.314;7.802;2023-03-17T22:08:08;99831.69;;;9.31;nan
48089;BME280;33867;50.314;7.802;2023-03-17T22:11:27;99839.34;;;9.35;nan
48089;BME280;33867;50.314;7.802;2023-03-17T22:14:47;99833.38;;;9.32;nan
48089;BME280;33867;50.314;7.802;2023-03-17T22:18:06;99836.78;;;9.34;nan
48089;BME280;33867;50.314;7.802;2023-03-17T22:21:25;99842.41;;;9.41;nan
48089;BME280;33867;50.314;7.802;2023-03-17T22:24:47;99851.81;;;9.27;nan
48089;BME280;33867;50.314;7.802;2023-03-17T22:28:06;99849.50;;;9.32;nan
48089;BME280;33867;50.314;7.802;2023-03-17T22:31:29;99855.00;;;9.40;nan
48089;BME280;33867;50.314;7.802;2023-03-17T22:34:48;99852.97;;;9.24;nan
48089;BME280;33867;50.314;7.802;2023-03-17T22:38:09;99855.91;;;9.21;nan
48089;BME280;33867;50.314;7.802;2023-03-17T22:41:29;99864.06;;;9.39;nan
48089;BME280;33867;50.314;7.802;2023-03-17T22:44:48;99860.41;;;9.30;nan
48089;BME280;33867;50.314;7.802;2023-03-17T22:48:07;99859.50;;;9.12;nan
48089;BME280;33867;50.314;7.802;2023-03-17T22:51:27;99856.84;;;9.02;nan
48089;BME280;33867;50.314;7.802;2023-03-17T22:54:46;99861.75;;;9.07;nan
48089;BME280;33867;50.314;7.802;2023-03-17T22:58:05;99864.94;;;8.83;nan
48089;BME280;33867;50.314;7.802;2023-03-17T23:01:24;99870.41;;;9.01;nan
48089;BME280;33867;50.314;7.802;2023-03-17T23:04:43;99867.06;;;8.70;nan
48089;BME280;33867;50.314;7.802;2023-03-17T23:08:03;99872.28;;;8.91;nan
48089;BME280;33867;50.314;7.802;2023-03-17T23:11:24;99881.16;;;9.01;nan
48089;BME280;33867;50.314;7.802;2023-03-17T23:14:45;99877.00;;;9.16;nan
48089;BME280;33867;50.314;7.802;2023-03-17T23:18:04;99864.63;;;8.86;nan
48089;BME280;33867;50.314;7.802;2023-03-17T23:21:30;99879.88;;;8.95;nan
48089;BME280;33867;50.314;7.802;2023-03-17T23:24:49;99887.41;;;8.82;nan
48089;BME280;33867;50.314;7.802;2023-03-17T23:28:09;99897.44;;;8.90;nan
48089;BME280;33867;50.314;7.802;2023-03-17T23:31:43;99895.81;;;9.06;nan
48089;BME280;33867;50.314;7.802;2023-03-17T23:35:02;99908.03;;;8.72;nan
48089;BME280;33867;50.314;7.802;2023-03-17T23:38:21;99895.16;;;8.75;nan
48089;BME280;33867;50.314;7.802;2023-03-17T23:41:40;99900.50;;;8.95;nan
48089;BME280;33867;50.314;7.802;2023-03-17T23:44:59;99902.63;;;9.01;nan
48089;BME280;33867;50.314;7.802;2023-03-17T23:48:18;99898.50;;;9.06;nan
48089;BME280;33867;50.314;7.802;2023-03-17T23:51:38;99908.41;;;9.06;nan
48089;BME280;33867;50.314;7.802;2023-03-17T23:55:11;99906.59;;;8.97;nan
48089;BME280;33867;50.314;7.802;2023-03-17T23:58:44;99916.50;;;8.87;nan
